Townville, SC (29689)

4:06 PM EST on December 22, 2014 (GMT -0500)
Musser Fruit Farm | Change Station
CLOSE
Current Station
Personal Weather Station
Location: Seneca, SC
Elevation: 727 ft
Nearby Weather Stations

Elev 727 ft 34.60 °N, 82.88 °W | Updated 12 minutes ago

Overcast
Overcast
42.9 °F
Feels Like 40 °F
N
5.0
Wind Variable Wind from East
Gusts 10.0 mph

Today
High -- | Low -- °F
--% Chance of Precip.
Yesterday
High -- | Low -- °F
Precip. -- in
7:34 AM 5:25 PM
New Moon, 1% visible
Pressure 30.00 in
Visibility 10.0 miles
Clouds Overcast 700 ft
Windchill 40 °F
Dew Point 41 °F
Humidity 93%
Rainfall 0.00 in
Snow Depth Not available.
UV 0.0 out of 12
Pollen 1.00 out of 12
Air Quality Not available.
Flu Activity Not available.
METAR KCEU 222054Z AUTO 08007KT 10SM OVC007 07/04 A3000 RMK AO2 SLP159 T00720039 55013

More Conditions Fewer Conditions

Pressure 30.00 in
Visibility 10.0 miles
Clouds Overcast 700 ft
Windchill 40 °F
Dew Point 41 °F
Humidity 93%
Rainfall 0.00 in
Snow Depth Not available.
UV 0.0 out of 12
Pollen 1.00 out of 12
Air Quality Not available.
Flu Activity Not available.
METAR KCEU 222054Z AUTO 08007KT 10SM OVC007 07/04 A3000 RMK AO2 SLP159 T00720039 55013

More Conditions Fewer Conditions

10-Day Weather Forecast

Almanac

Astronomy

Dec. 22, 2014 Rise Set
Actual Time
Civil Twilight
Nautical Twilight
Astronomical Twilight
Moon
Length of Visible Light
Length of Day
Tomorrow will be .
, % of the Moon is Illuminated

Today's Extremes

State Highs State Lows

Community

WunderPhotos

Upload Photos

1,779,680 photos uploaded!

WunderBlogs® & News

Nearby

Air Quality

  Air Quality AQ Index Pollutant
Not available.

Snow Depth

Station Depth Elevation

Earthquake Activity

City Distance Mag. Time & Date
Minimum magnitude displayed is 2.5.

Coastal Water Temperatures

Place Temperature

Nearby Weather Stations